createdAt,value
2019-01-02T00:01:07.800Z,84.00
2019-01-02T00:03:37.166Z,85.15
2019-01-02T00:06:06.822Z,86.24
2019-01-02T00:08:36.398Z,87.54
2019-01-02T00:11:05.834Z,88.35
2019-01-02T00:16:37.334Z,89.76
2019-01-02T00:19:07.101Z,90.45
2019-01-02T00:21:57.228Z,90.65
2019-01-02T00:24:27.146Z,90.60
2019-01-02T00:27:15.887Z,90.41
2019-01-02T00:30:26.943Z,90.33
2019-01-02T00:32:56.847Z,90.46
2019-01-02T00:35:26.221Z,90.28
2019-01-02T00:38:16.340Z,90.32
2019-01-02T00:40:45.871Z,90.02
2019-01-02T00:43:15.202Z,89.85
2019-01-02T00:45:45.187Z,89.71
2019-01-02T00:48:46.260Z,89.31
2019-01-02T00:51:28.531Z,89.57
2019-01-02T00:53:58.059Z,89.51
2019-01-02T00:56:27.403Z,89.04
2019-01-02T00:59:18.164Z,88.48
2019-01-02T01:01:47.793Z,87.93
2019-01-02T01:04:37.940Z,87.06
2019-01-02T01:07:07.267Z,87.05
2019-01-02T01:09:37.212Z,85.84
2019-01-02T01:12:06.541Z,85.87
2019-01-02T01:17:51.174Z,85.78
2019-01-02T01:20:20.508Z,84.70
2019-01-02T01:22:50.032Z,84.14
2019-01-02T01:25:21.469Z,84.89
2019-01-02T01:27:51.115Z,84.73
2019-01-02T01:30:41.545Z,85.17
2019-01-02T01:33:11.188Z,85.55
2019-01-02T01:35:40.533Z,86.23
2019-01-02T01:38:10.160Z,86.64
2019-01-02T01:40:50.208Z,86.58
2019-01-02T01:43:19.548Z,86.58
2019-01-02T01:45:49.303Z,86.83
2019-01-02T01:48:18.634Z,86.78
2019-01-02T01:50:48.184Z,86.93
2019-01-02T01:53:38.314Z,87.28
2019-01-02T01:58:56.164Z,86.85
2019-01-02T02:01:25.869Z,86.76
2019-01-02T02:04:02.648Z,87.30
2019-01-02T02:06:32.291Z,87.46
2019-01-02T02:09:01.647Z,87.63
2019-01-02T02:11:52.319Z,88.16
2019-01-02T02:14:21.976Z,88.16
2019-01-02T02:16:51.322Z,87.80
2019-01-02T02:19:27.479Z,87.60
2019-01-02T02:21:58.443Z,87.75
2019-01-02T02:24:27.780Z,87.86
2019-01-02T02:27:04.313Z,87.61
2019-01-02T02:29:33.962Z,87.75
2019-01-02T02:32:03.312Z,87.97
2019-01-02T02:34:34.931Z,87.95
2019-01-02T02:37:04.346Z,87.91
2019-01-02T02:39:35.346Z,87.80
2019-01-02T02:42:25.759Z,87.57
2019-01-02T02:45:02.359Z,87.56
2019-01-02T02:47:42.184Z,87.55
2019-01-02T02:50:21.701Z,87.57
2019-01-02T02:53:01.391Z,87.67
2019-01-02T02:55:38.444Z,87.92
2019-01-02T02:58:14.808Z,88.03
2019-01-02T03:00:54.393Z,87.94
2019-01-02T03:03:34.395Z,87.79
2019-01-02T03:06:03.734Z,87.82
2019-01-02T03:08:33.539Z,87.71
2019-01-02T03:14:05.324Z,87.78
2019-01-02T03:16:35.532Z,87.78
2019-01-02T03:19:12.452Z,87.18
2019-01-02T03:21:48.717Z,87.22
2019-01-02T03:24:25.777Z,87.35
2019-01-02T03:29:54.266Z,87.22
2019-01-02T03:32:23.605Z,87.24
2019-01-02T03:35:13.750Z,87.40
2019-01-02T03:37:43.386Z,87.50
2019-01-02T03:40:33.654Z,87.42
2019-01-02T03:43:22.627Z,86.85
2019-01-02T03:45:52.551Z,86.85
2019-01-02T03:51:29.636Z,87.33
2019-01-02T03:53:58.992Z,87.18
2019-01-02T03:56:49.521Z,86.93
2019-01-02T03:59:18.880Z,87.01
2019-01-02T04:01:48.764Z,87.04
2019-01-02T04:04:18.391Z,87.06
2019-01-02T04:06:47.750Z,87.21
2019-01-02T04:09:17.371Z,87.18
2019-01-02T04:11:46.726Z,87.27
2019-01-02T04:14:16.064Z,87.47
2019-01-02T04:16:57.635Z,87.52
2019-01-02T04:19:26.973Z,87.52
2019-01-02T04:22:15.776Z,87.11
2019-01-02T04:24:45.410Z,87.11
2019-01-02T04:27:15.060Z,87.26
2019-01-02T04:29:44.628Z,87.04
2019-01-02T04:32:14.279Z,86.86
2019-01-02T04:34:43.779Z,86.60
2019-01-02T04:37:13.420Z,86.62
2019-01-02T04:39:56.554Z,87.07
2019-01-02T04:42:25.927Z,87.07
2019-01-02T04:44:55.616Z,86.61
2019-01-02T04:47:24.950Z,86.61
2019-01-02T04:49:54.622Z,86.67
2019-01-02T04:52:24.261Z,86.48
2019-01-02T04:54:53.624Z,86.55
2019-01-02T04:57:22.957Z,86.39
2019-01-02T05:00:04.341Z,86.33
2019-01-02T05:02:33.888Z,86.19
2019-01-02T05:05:03.974Z,86.22
2019-01-02T05:07:33.626Z,86.11
2019-01-02T05:10:03.314Z,86.23
2019-01-02T05:12:32.941Z,86.32
2019-01-02T05:15:02.266Z,86.37
2019-01-02T05:17:31.864Z,86.18
2019-01-02T05:20:01.228Z,86.02
2019-01-02T05:22:30.867Z,85.99
2019-01-02T05:25:00.235Z,85.85
2019-01-02T05:27:30.057Z,85.74
2019-01-02T05:29:59.710Z,85.18
2019-01-02T05:32:29.084Z,84.97
2019-01-02T05:34:58.653Z,85.16
2019-01-02T05:37:28.044Z,85.25
2019-01-02T05:39:57.683Z,84.99
2019-01-02T05:42:27.335Z,84.20
2019-01-02T05:44:59.276Z,84.02
2019-01-02T05:47:28.931Z,84.37
2019-01-02T05:49:58.563Z,84.08
2019-01-02T05:52:28.052Z,83.79
2019-01-02T05:54:57.754Z,83.30
2019-01-02T05:57:27.398Z,83.29
2019-01-02T05:59:56.872Z,82.89
2019-01-02T06:02:26.505Z,82.32
2019-01-02T06:04:56.074Z,82.39
2019-01-02T06:07:26.150Z,82.38
2019-01-02T06:09:55.739Z,82.60
2019-01-02T06:12:26.125Z,82.82
2019-01-02T06:14:55.931Z,83.30
2019-01-02T06:17:36.991Z,83.21
2019-01-02T06:23:41.207Z,83.51
2019-01-02T06:26:10.845Z,83.70
2019-01-02T06:28:40.734Z,83.27
2019-01-02T06:31:10.086Z,83.18
2019-01-02T06:33:40.013Z,82.79
2019-01-02T06:36:09.367Z,82.96
2019-01-02T06:38:39.022Z,82.91
2019-01-02T06:41:08.353Z,82.89
2019-01-02T06:43:38.002Z,82.76
2019-01-02T06:46:07.350Z,82.54
2019-01-02T06:48:36.982Z,82.59
2019-01-02T06:51:06.319Z,82.27
2019-01-02T06:53:46.032Z,81.43
2019-01-02T06:56:15.366Z,81.43
2019-01-02T07:01:58.424Z,81.78
2019-01-02T07:04:28.058Z,81.51
2019-01-02T07:07:03.016Z,81.36
2019-01-02T07:09:34.144Z,81.38
2019-01-02T07:12:03.773Z,81.21
2019-01-02T07:14:33.241Z,81.53
2019-01-02T07:17:02.877Z,81.32
2019-01-02T07:19:32.215Z,81.04
2019-01-02T07:22:01.923Z,81.09
2019-01-02T07:24:31.553Z,81.04
2019-01-02T07:27:01.126Z,81.20
2019-01-02T07:29:49.805Z,81.14
2019-01-02T07:32:24.515Z,80.76
2019-01-02T07:35:48.245Z,80.71
2019-01-02T07:38:56.613Z,80.66
2019-01-02T07:42:05.132Z,80.66
2019-01-02T07:44:55.385Z,80.57
2019-01-02T07:48:05.146Z,80.70
2019-01-02T07:51:14.514Z,80.44
2019-01-02T07:57:25.062Z,80.35
2019-01-02T08:00:15.339Z,80.32
2019-01-02T08:03:23.691Z,80.38
2019-01-02T08:06:05.245Z,80.23
2019-01-02T08:09:13.364Z,80.11
2019-01-02T08:12:21.712Z,80.06
2019-01-02T08:15:29.931Z,80.20
2019-01-02T08:18:20.411Z,80.12
2019-01-02T08:21:28.777Z,79.85
2019-01-02T08:24:19.039Z,80.24
2019-01-02T08:27:28.473Z,79.93
2019-01-02T08:30:36.828Z,79.87
2019-01-02T08:33:46.786Z,79.80
2019-01-02T08:36:54.942Z,79.57
2019-01-02T08:39:45.273Z,78.99
2019-01-02T08:42:35.478Z,78.86
2019-01-02T08:45:26.022Z,77.84
2019-01-02T08:48:34.090Z,76.47
2019-01-02T08:51:43.550Z,75.11
2019-01-02T08:54:51.897Z,75.47
2019-01-02T08:57:59.950Z,74.79
2019-01-02T09:01:01.538Z,72.99
2019-01-02T09:04:09.902Z,72.99
2019-01-02T09:07:19.637Z,71.78
2019-01-02T09:13:36.342Z,69.90
2019-01-02T09:16:44.435Z,68.09
2019-01-02T09:19:35.013Z,66.74
2019-01-02T09:25:45.247Z,60.32
2019-01-02T09:28:35.492Z,60.32
2019-01-02T09:31:26.055Z,59.20
2019-01-02T09:34:36.256Z,58.25
2019-01-02T09:37:26.854Z,56.49
2019-01-02T09:40:17.281Z,54.62
2019-01-02T09:43:07.491Z,55.23
2019-01-02T09:48:51.144Z,52.66
2019-01-02T09:51:33.485Z,50.47
2019-01-02T09:54:15.563Z,50.19
2019-01-02T09:57:23.636Z,50.56
2019-01-02T10:00:31.696Z,50.37
2019-01-02T10:03:40.064Z,50.28
2019-01-02T10:06:48.195Z,48.05
2019-01-02T10:09:57.651Z,47.78
2019-01-02T10:16:26.045Z,47.07
2019-01-02T10:19:16.402Z,47.49
2019-01-02T10:22:24.449Z,47.88
2019-01-02T10:25:32.557Z,46.76
2019-01-02T10:28:22.811Z,46.81
2019-01-02T10:31:31.396Z,45.24
2019-01-02T10:34:39.450Z,45.35
2019-01-02T10:37:47.540Z,44.80
2019-01-02T10:44:30.249Z,44.56
2019-01-02T10:47:20.509Z,44.35
2019-01-02T10:50:28.631Z,43.67
2019-01-02T10:53:38.020Z,43.77
2019-01-02T10:56:28.429Z,44.21
2019-01-02T10:59:36.503Z,44.22
2019-01-02T11:02:44.591Z,44.83
2019-01-02T11:05:52.638Z,44.70
2019-01-02T11:08:42.919Z,44.76
2019-01-02T11:11:51.239Z,44.50
2019-01-02T11:14:59.310Z,45.59
2019-01-02T11:21:14.689Z,45.93
2019-01-02T11:24:22.770Z,43.87
2019-01-02T11:27:30.812Z,44.53
2019-01-02T11:30:40.826Z,45.55
2019-01-02T11:33:31.371Z,44.85
2019-01-02T11:36:39.470Z,45.58
2019-01-02T11:45:15.749Z,45.43
2019-01-02T11:47:45.085Z,44.14
2019-01-02T11:50:14.662Z,43.76
2019-01-02T11:52:44.002Z,42.70
2019-01-02T11:55:15.051Z,43.68
2019-01-02T11:57:44.687Z,43.94
2019-01-02T12:00:34.947Z,44.07
2019-01-02T12:03:04.288Z,43.69
2019-01-02T12:05:34.185Z,44.19
2019-01-02T12:08:03.671Z,43.14
2019-01-02T12:10:33.024Z,43.14
2019-01-02T12:13:02.692Z,43.21
2019-01-02T12:15:32.349Z,43.61
2019-01-02T12:18:01.855Z,43.19
2019-01-02T12:20:31.249Z,41.74
2019-01-02T12:23:00.817Z,43.11
2019-01-02T12:25:30.181Z,43.01
2019-01-02T12:27:59.700Z,42.32
2019-01-02T12:30:29.070Z,40.64
2019-01-02T12:32:58.707Z,40.88
2019-01-02T12:35:28.088Z,40.73
2019-01-02T12:37:57.721Z,41.22
2019-01-02T12:40:27.146Z,41.64
2019-01-02T12:42:56.732Z,41.58
2019-01-02T12:45:27.184Z,38.81
2019-01-02T12:47:56.813Z,38.81
2019-01-02T12:53:21.320Z,39.29
2019-01-02T12:55:50.846Z,40.12
2019-01-02T12:58:21.794Z,41.23
2019-01-02T13:01:12.289Z,42.01
2019-01-02T13:04:02.959Z,42.11
2019-01-02T13:07:12.360Z,41.25
2019-01-02T13:13:23.140Z,40.02
2019-01-02T13:16:32.928Z,41.09
2019-01-02T13:25:37.265Z,41.77
2019-01-02T13:32:01.930Z,41.24
2019-01-02T13:38:43.607Z,41.38
2019-01-02T13:41:33.865Z,42.18
2019-01-02T13:50:53.142Z,43.26
2019-01-02T13:53:23.454Z,42.75
2019-01-02T13:55:53.117Z,42.00
2019-01-02T13:58:22.460Z,42.26
2019-01-02T14:00:52.161Z,41.41
2019-01-02T14:03:22.053Z,42.13
2019-01-02T14:05:53.123Z,40.44
2019-01-02T14:08:22.460Z,41.25
2019-01-02T14:10:52.030Z,42.37
2019-01-02T14:13:21.352Z,42.72
2019-01-02T14:15:50.694Z,43.71
2019-01-02T14:18:20.027Z,44.70
2019-01-02T14:20:49.376Z,44.74
2019-01-02T14:23:38.707Z,45.43
2019-01-02T14:26:08.018Z,45.43
2019-01-02T14:28:37.360Z,46.27
2019-01-02T14:31:19.166Z,46.32
2019-01-02T14:33:48.498Z,46.32
2019-01-02T14:36:18.238Z,45.21
2019-01-02T14:38:47.608Z,45.55
2019-01-02T14:41:18.572Z,45.80
2019-01-02T14:43:47.895Z,45.64
2019-01-02T14:46:19.328Z,45.52
2019-01-02T14:48:49.080Z,45.84
2019-01-02T14:54:33.924Z,46.37
2019-01-02T14:57:03.362Z,46.21
2019-01-02T14:59:33.743Z,47.21
2019-01-02T15:02:22.574Z,48.11
2019-01-02T15:04:52.216Z,48.44
2019-01-02T15:07:21.584Z,48.44
2019-01-02T15:09:51.196Z,48.41
2019-01-02T15:12:20.545Z,48.41
2019-01-02T15:15:00.300Z,49.84
2019-01-02T15:17:29.935Z,49.84
2019-01-02T15:19:59.276Z,50.80
2019-01-02T15:22:28.616Z,50.87
2019-01-02T15:24:58.333Z,51.94
2019-01-02T15:30:15.382Z,52.37
2019-01-02T15:32:44.731Z,61.31
2019-01-02T15:35:33.680Z,54.14
2019-01-02T15:38:13.321Z,55.56
2019-01-02T15:40:42.650Z,55.56
2019-01-02T15:43:25.209Z,55.75
2019-01-02T15:45:54.540Z,55.75
2019-01-02T15:48:37.175Z,53.53
2019-01-02T15:51:19.367Z,53.53
2019-01-02T15:54:00.733Z,54.26
2019-01-02T15:56:42.762Z,53.92
2019-01-02T15:59:12.621Z,54.48
2019-01-02T16:02:01.923Z,55.40
2019-01-02T16:04:43.898Z,55.52
2019-01-02T16:07:26.044Z,55.52
2019-01-02T16:12:55.599Z,58.07
2019-01-02T16:18:28.723Z,58.49
2019-01-02T16:21:17.942Z,59.24
2019-01-02T16:23:47.386Z,59.24
2019-01-02T16:26:16.708Z,58.71
2019-01-02T16:28:46.345Z,58.82
2019-01-02T16:31:15.919Z,58.82
2019-01-02T16:33:45.561Z,59.95
2019-01-02T16:36:14.892Z,60.17
2019-01-02T16:38:44.841Z,59.98
2019-01-02T16:41:14.513Z,60.11
2019-01-02T16:43:43.856Z,60.24
2019-01-02T16:46:13.493Z,60.24
2019-01-02T16:48:42.836Z,60.42
2019-01-02T16:51:12.373Z,60.65
2019-01-02T16:53:41.741Z,60.80
2019-01-02T16:56:11.376Z,61.04
2019-01-02T16:58:40.725Z,61.32
2019-01-02T17:01:10.347Z,61.52
2019-01-02T17:03:39.723Z,61.97
2019-01-02T17:06:09.376Z,62.25
2019-01-02T17:08:39.047Z,62.44
2019-01-02T17:11:08.519Z,62.48
2019-01-02T17:13:37.902Z,62.63
2019-01-02T17:16:07.501Z,62.81
2019-01-02T17:21:17.535Z,62.98
2019-01-02T17:23:46.909Z,63.02
2019-01-02T17:26:16.528Z,63.20
2019-01-02T17:28:45.926Z,63.69
2019-01-02T17:31:15.488Z,64.21
2019-01-02T17:33:44.836Z,64.52
2019-01-02T17:36:14.510Z,64.58
2019-01-02T17:38:43.886Z,64.75
2019-01-02T17:41:13.180Z,64.92
2019-01-02T17:43:42.802Z,65.15
2019-01-02T17:46:24.688Z,65.59
2019-01-02T17:51:48.047Z,65.56
2019-01-02T17:54:17.504Z,65.71
2019-01-02T17:56:46.886Z,65.65
2019-01-02T17:59:26.785Z,65.68
2019-01-02T18:01:56.110Z,65.67
2019-01-02T18:04:26.065Z,65.74
2019-01-02T18:06:55.888Z,65.64
2019-01-02T18:09:25.577Z,65.81
2019-01-02T18:11:54.917Z,65.93
2019-01-02T18:14:24.806Z,65.94
2019-01-02T18:16:54.151Z,66.00
2019-01-02T18:19:23.675Z,66.00
2019-01-02T18:21:53.056Z,65.97
2019-01-02T18:24:22.596Z,65.81
2019-01-02T18:26:51.942Z,65.77
2019-01-02T18:29:21.268Z,65.78
2019-01-02T18:31:50.704Z,65.82
2019-01-02T18:34:20.044Z,65.80
2019-01-02T18:36:51.016Z,65.96
2019-01-02T18:39:20.656Z,66.21
2019-01-02T18:41:50.899Z,66.37
2019-01-02T18:44:20.716Z,66.60
2019-01-02T18:46:50.038Z,66.78
2019-01-02T18:52:00.013Z,67.00
2019-01-02T18:57:40.889Z,67.19
2019-01-02T19:03:30.854Z,67.38
2019-01-02T19:06:00.207Z,67.59
2019-01-02T19:08:29.836Z,67.63
2019-01-02T19:10:59.536Z,67.76
2019-01-02T19:13:48.583Z,68.23
2019-01-02T19:16:21.505Z,68.23
2019-01-02T19:18:58.044Z,68.41
2019-01-02T19:21:28.116Z,68.69
2019-01-02T19:23:57.759Z,68.83
2019-01-02T19:38:02.133Z,69.77
2019-01-02T19:40:32.059Z,69.55
2019-01-02T19:43:01.419Z,69.54
2019-01-02T19:45:50.389Z,69.01
2019-01-02T19:48:19.864Z,69.01
2019-01-02T19:50:49.199Z,69.24
2019-01-02T19:53:31.461Z,69.18
2019-01-02T19:56:12.801Z,69.20
2019-01-02T19:58:55.328Z,69.39
2019-01-02T20:01:37.129Z,69.59
2019-01-02T20:04:19.000Z,69.64
2019-01-02T20:07:01.296Z,69.73
2019-01-02T20:09:43.123Z,69.84
2019-01-02T20:12:24.997Z,70.01
2019-01-02T20:15:06.633Z,70.25
2019-01-02T20:17:48.440Z,70.39
2019-01-02T20:20:31.002Z,70.45
2019-01-02T20:23:00.354Z,70.62
2019-01-02T20:25:30.196Z,70.90
2019-01-02T20:28:12.031Z,71.21
2019-01-02T20:30:53.475Z,71.60
2019-01-02T20:33:23.029Z,71.86
2019-01-02T20:35:52.661Z,71.95
2019-01-02T20:38:22.082Z,71.90
2019-01-02T20:43:41.708Z,71.92
2019-01-02T20:46:11.029Z,71.88
2019-01-02T20:54:57.786Z,72.06
2019-01-02T20:57:28.336Z,72.14
2019-01-02T21:02:48.011Z,72.38
2019-01-02T21:05:17.509Z,72.54
2019-01-02T21:07:59.957Z,72.71
2019-01-02T21:10:42.056Z,72.74
2019-01-02T21:13:24.110Z,72.80
2019-01-02T21:15:53.630Z,72.81
2019-01-02T21:18:23.031Z,72.80
2019-01-02T21:21:04.620Z,72.78
2019-01-02T21:23:46.834Z,72.86
2019-01-02T21:26:29.174Z,72.92
2019-01-02T21:28:58.684Z,73.10
2019-01-02T21:31:28.462Z,73.20
2019-01-02T21:33:58.137Z,73.21
2019-01-02T21:36:28.400Z,73.18
2019-01-02T21:38:58.057Z,73.00
2019-01-02T21:41:28.389Z,72.86
2019-01-02T21:43:57.736Z,72.70
2019-01-02T21:46:28.674Z,72.52
2019-01-02T21:49:17.526Z,72.37
2019-01-02T21:51:47.126Z,72.33
2019-01-02T21:54:16.801Z,72.27
2019-01-02T21:56:46.132Z,72.11
2019-01-02T21:59:15.477Z,72.05
2019-01-02T22:01:45.102Z,71.96
2019-01-02T22:04:14.450Z,71.84
2019-01-02T22:06:44.077Z,71.76
2019-01-02T22:09:13.719Z,71.67
2019-01-02T22:11:43.337Z,71.64
2019-01-02T22:14:12.934Z,71.65
2019-01-02T22:16:42.269Z,71.66
2019-01-02T22:19:30.960Z,71.78
2019-01-02T22:22:00.295Z,71.73
2019-01-02T22:24:31.498Z,71.71
2019-01-02T22:27:01.130Z,71.78
2019-01-02T22:29:42.555Z,71.83
2019-01-02T22:32:12.206Z,71.80
2019-01-02T22:34:41.566Z,71.69
2019-01-02T22:37:11.192Z,71.54
2019-01-02T22:39:40.550Z,71.48
2019-01-02T22:42:10.214Z,71.49
2019-01-02T22:45:00.726Z,71.55
2019-01-02T22:47:30.507Z,71.76
2019-01-02T22:49:59.926Z,72.06
2019-01-02T22:52:42.134Z,72.38
2019-01-02T22:55:11.471Z,72.46
2019-01-02T22:57:41.108Z,72.39
2019-01-02T23:03:45.838Z,72.33
2019-01-02T23:06:34.420Z,72.35
2019-01-02T23:12:24.291Z,72.39
2019-01-02T23:15:12.779Z,72.37
2019-01-02T23:18:01.650Z,72.37
2019-01-02T23:23:30.562Z,72.32
2019-01-02T23:26:19.041Z,72.44
2019-01-02T23:29:07.557Z,72.55
2019-01-02T23:31:56.034Z,72.68
2019-01-02T23:34:44.567Z,72.95
2019-01-02T23:40:48.802Z,73.39
2019-01-02T23:43:37.420Z,73.51
2019-01-02T23:49:21.653Z,73.78
2019-01-02T23:55:06.336Z,74.27
2019-01-02T23:57:55.102Z,75.64
